sensor_id;sensor_type;location;lat;lon;timestamp;P1;durP1;ratioP1;P2;durP2;ratioP2
53293;SDS011;39181;53.440;5.644;2022-10-22T00:01:10;15.85;;;8.60;;
53293;SDS011;39181;53.440;5.644;2022-10-22T00:03:35;15.90;;;8.55;;
53293;SDS011;39181;53.440;5.644;2022-10-22T00:06:01;19.48;;;7.88;;
53293;SDS011;39181;53.440;5.644;2022-10-22T00:08:27;14.45;;;8.20;;
53293;SDS011;39181;53.440;5.644;2022-10-22T00:10:55;14.10;;;8.43;;
53293;SDS011;39181;53.440;5.644;2022-10-22T00:13:20;14.18;;;8.27;;
53293;SDS011;39181;53.440;5.644;2022-10-22T00:15:46;15.18;;;8.73;;
53293;SDS011;39181;53.440;5.644;2022-10-22T00:18:12;16.85;;;8.10;;
53293;SDS011;39181;53.440;5.644;2022-10-22T00:20:38;13.60;;;7.93;;
53293;SDS011;39181;53.440;5.644;2022-10-22T00:23:03;17.85;;;8.13;;
53293;SDS011;39181;53.440;5.644;2022-10-22T00:25:29;15.48;;;8.23;;
53293;SDS011;39181;53.440;5.644;2022-10-22T00:27:55;12.43;;;8.43;;
53293;SDS011;39181;53.440;5.644;2022-10-22T00:30:20;16.13;;;8.52;;
53293;SDS011;39181;53.440;5.644;2022-10-22T00:32:46;15.68;;;8.13;;
53293;SDS011;39181;53.440;5.644;2022-10-22T00:35:12;15.90;;;7.88;;
53293;SDS011;39181;53.440;5.644;2022-10-22T00:37:37;17.27;;;8.23;;
53293;SDS011;39181;53.440;5.644;2022-10-22T00:40:03;15.05;;;8.50;;
53293;SDS011;39181;53.440;5.644;2022-10-22T00:42:29;11.43;;;7.25;;
53293;SDS011;39181;53.440;5.644;2022-10-22T00:47:36;12.88;;;7.72;;
53293;SDS011;39181;53.440;5.644;2022-10-22T00:50:14;12.40;;;7.40;;
53293;SDS011;39181;53.440;5.644;2022-10-22T00:52:45;13.90;;;8.23;;
53293;SDS011;39181;53.440;5.644;2022-10-22T00:55:11;12.45;;;8.65;;
53293;SDS011;39181;53.440;5.644;2022-10-22T00:57:38;13.98;;;8.23;;
53293;SDS011;39181;53.440;5.644;2022-10-22T01:00:05;17.02;;;8.40;;
53293;SDS011;39181;53.440;5.644;2022-10-22T01:02:31;13.65;;;8.43;;
53293;SDS011;39181;53.440;5.644;2022-10-22T01:04:57;16.65;;;7.95;;
53293;SDS011;39181;53.440;5.644;2022-10-22T01:07:23;14.80;;;8.60;;
53293;SDS011;39181;53.440;5.644;2022-10-22T01:10:07;13.27;;;7.88;;
53293;SDS011;39181;53.440;5.644;2022-10-22T01:12:47;15.63;;;8.35;;
53293;SDS011;39181;53.440;5.644;2022-10-22T01:17:56;13.70;;;7.97;;
53293;SDS011;39181;53.440;5.644;2022-10-22T01:26:02;15.57;;;8.35;;
53293;SDS011;39181;53.440;5.644;2022-10-22T01:31:21;13.63;;;8.23;;
53293;SDS011;39181;53.440;5.644;2022-10-22T01:33:49;14.70;;;8.13;;
53293;SDS011;39181;53.440;5.644;2022-10-22T01:36:17;20.02;;;8.88;;
53293;SDS011;39181;53.440;5.644;2022-10-22T01:38:43;14.80;;;7.95;;
53293;SDS011;39181;53.440;5.644;2022-10-22T01:41:10;17.58;;;8.73;;
53293;SDS011;39181;53.440;5.644;2022-10-22T01:43:36;11.90;;;7.78;;
53293;SDS011;39181;53.440;5.644;2022-10-22T01:46:02;15.25;;;8.18;;
53293;SDS011;39181;53.440;5.644;2022-10-22T01:48:34;19.60;;;8.23;;
53293;SDS011;39181;53.440;5.644;2022-10-22T01:53:50;13.90;;;8.40;;
53293;SDS011;39181;53.440;5.644;2022-10-22T01:56:29;17.50;;;8.40;;
53293;SDS011;39181;53.440;5.644;2022-10-22T01:59:07;12.85;;;8.50;;
53293;SDS011;39181;53.440;5.644;2022-10-22T02:01:57;17.38;;;8.90;;
53293;SDS011;39181;53.440;5.644;2022-10-22T02:04:33;18.38;;;8.02;;
53293;SDS011;39181;53.440;5.644;2022-10-22T02:07:05;13.43;;;8.38;;
53293;SDS011;39181;53.440;5.644;2022-10-22T02:09:34;16.25;;;8.10;;
53293;SDS011;39181;53.440;5.644;2022-10-22T02:12:02;14.10;;;8.05;;
53293;SDS011;39181;53.440;5.644;2022-10-22T02:14:30;14.38;;;7.95;;
53293;SDS011;39181;53.440;5.644;2022-10-22T02:16:58;18.80;;;8.45;;
53293;SDS011;39181;53.440;5.644;2022-10-22T02:19:26;14.68;;;8.65;;
53293;SDS011;39181;53.440;5.644;2022-10-22T02:22:01;16.98;;;8.35;;
53293;SDS011;39181;53.440;5.644;2022-10-22T02:24:28;17.02;;;8.25;;
53293;SDS011;39181;53.440;5.644;2022-10-22T02:32:23;15.95;;;8.38;;
53293;SDS011;39181;53.440;5.644;2022-10-22T02:34:52;15.20;;;7.97;;
53293;SDS011;39181;53.440;5.644;2022-10-22T02:37:19;14.18;;;8.15;;
53293;SDS011;39181;53.440;5.644;2022-10-22T02:39:46;13.68;;;8.88;;
53293;SDS011;39181;53.440;5.644;2022-10-22T02:42:13;12.30;;;7.93;;
53293;SDS011;39181;53.440;5.644;2022-10-22T02:44:39;15.40;;;8.57;;
53293;SDS011;39181;53.440;5.644;2022-10-22T02:47:04;16.40;;;7.93;;
53293;SDS011;39181;53.440;5.644;2022-10-22T02:49:30;12.90;;;8.07;;
53293;SDS011;39181;53.440;5.644;2022-10-22T02:51:55;13.30;;;8.07;;
53293;SDS011;39181;53.440;5.644;2022-10-22T02:54:21;15.18;;;8.00;;
53293;SDS011;39181;53.440;5.644;2022-10-22T02:56:46;18.52;;;7.65;;
53293;SDS011;39181;53.440;5.644;2022-10-22T02:59:12;15.27;;;7.93;;
53293;SDS011;39181;53.440;5.644;2022-10-22T03:01:37;17.00;;;8.40;;
53293;SDS011;39181;53.440;5.644;2022-10-22T03:04:03;18.05;;;7.68;;
53293;SDS011;39181;53.440;5.644;2022-10-22T03:06:29;12.32;;;7.25;;
53293;SDS011;39181;53.440;5.644;2022-10-22T03:08:55;14.85;;;7.78;;
53293;SDS011;39181;53.440;5.644;2022-10-22T03:11:20;13.75;;;8.00;;
53293;SDS011;39181;53.440;5.644;2022-10-22T03:13:46;15.60;;;8.23;;
53293;SDS011;39181;53.440;5.644;2022-10-22T03:16:11;14.02;;;8.68;;
53293;SDS011;39181;53.440;5.644;2022-10-22T03:18:37;15.57;;;7.68;;
53293;SDS011;39181;53.440;5.644;2022-10-22T03:21:12;13.57;;;7.25;;
53293;SDS011;39181;53.440;5.644;2022-10-22T03:23:45;13.93;;;7.63;;
53293;SDS011;39181;53.440;5.644;2022-10-22T03:26:12;16.20;;;8.15;;
53293;SDS011;39181;53.440;5.644;2022-10-22T03:28:38;13.35;;;7.18;;
53293;SDS011;39181;53.440;5.644;2022-10-22T03:31:05;15.02;;;6.85;;
53293;SDS011;39181;53.440;5.644;2022-10-22T03:33:31;13.00;;;7.70;;
53293;SDS011;39181;53.440;5.644;2022-10-22T03:35:57;17.63;;;7.78;;
53293;SDS011;39181;53.440;5.644;2022-10-22T03:38:23;13.38;;;6.50;;
53293;SDS011;39181;53.440;5.644;2022-10-22T03:40:49;14.35;;;7.25;;
53293;SDS011;39181;53.440;5.644;2022-10-22T03:43:15;15.43;;;7.32;;
53293;SDS011;39181;53.440;5.644;2022-10-22T03:45:40;12.43;;;7.50;;
53293;SDS011;39181;53.440;5.644;2022-10-22T03:48:06;15.05;;;7.32;;
53293;SDS011;39181;53.440;5.644;2022-10-22T03:50:32;13.40;;;6.97;;
53293;SDS011;39181;53.440;5.644;2022-10-22T03:52:57;16.25;;;8.00;;
53293;SDS011;39181;53.440;5.644;2022-10-22T03:55:23;18.38;;;7.90;;
53293;SDS011;39181;53.440;5.644;2022-10-22T03:57:49;13.80;;;7.05;;
53293;SDS011;39181;53.440;5.644;2022-10-22T04:00:15;13.95;;;6.80;;
53293;SDS011;39181;53.440;5.644;2022-10-22T04:02:41;17.25;;;7.13;;
53293;SDS011;39181;53.440;5.644;2022-10-22T04:05:06;15.23;;;6.35;;
53293;SDS011;39181;53.440;5.644;2022-10-22T04:07:32;11.40;;;6.90;;
53293;SDS011;39181;53.440;5.644;2022-10-22T04:09:58;13.88;;;7.65;;
53293;SDS011;39181;53.440;5.644;2022-10-22T04:12:23;15.40;;;7.47;;
53293;SDS011;39181;53.440;5.644;2022-10-22T04:14:50;20.17;;;8.57;;
53293;SDS011;39181;53.440;5.644;2022-10-22T04:17:15;12.75;;;6.63;;
53293;SDS011;39181;53.440;5.644;2022-10-22T04:19:41;12.80;;;6.82;;
53293;SDS011;39181;53.440;5.644;2022-10-22T04:22:06;14.85;;;6.55;;
53293;SDS011;39181;53.440;5.644;2022-10-22T04:24:32;14.02;;;6.57;;
53293;SDS011;39181;53.440;5.644;2022-10-22T04:26:58;11.85;;;6.55;;
53293;SDS011;39181;53.440;5.644;2022-10-22T04:29:23;14.38;;;6.88;;
53293;SDS011;39181;53.440;5.644;2022-10-22T04:31:49;14.93;;;5.97;;
53293;SDS011;39181;53.440;5.644;2022-10-22T04:34:15;17.02;;;7.43;;
53293;SDS011;39181;53.440;5.644;2022-10-22T04:36:40;12.70;;;6.30;;
53293;SDS011;39181;53.440;5.644;2022-10-22T04:39:06;12.27;;;6.40;;
53293;SDS011;39181;53.440;5.644;2022-10-22T04:41:33;12.35;;;6.43;;
53293;SDS011;39181;53.440;5.644;2022-10-22T04:44:00;14.45;;;7.78;;
53293;SDS011;39181;53.440;5.644;2022-10-22T04:46:27;13.23;;;6.43;;
53293;SDS011;39181;53.440;5.644;2022-10-22T04:48:55;13.75;;;6.65;;
53293;SDS011;39181;53.440;5.644;2022-10-22T04:51:22;18.80;;;7.07;;
53293;SDS011;39181;53.440;5.644;2022-10-22T04:53:49;17.15;;;6.63;;
53293;SDS011;39181;53.440;5.644;2022-10-22T04:56:16;12.60;;;7.05;;
53293;SDS011;39181;53.440;5.644;2022-10-22T04:59:02;10.50;;;6.43;;
53293;SDS011;39181;53.440;5.644;2022-10-22T05:01:30;12.88;;;6.45;;
53293;SDS011;39181;53.440;5.644;2022-10-22T05:03:59;14.27;;;6.22;;
53293;SDS011;39181;53.440;5.644;2022-10-22T05:06:27;13.27;;;5.88;;
53293;SDS011;39181;53.440;5.644;2022-10-22T05:08:55;13.20;;;6.53;;
53293;SDS011;39181;53.440;5.644;2022-10-22T05:11:24;13.68;;;5.95;;
53293;SDS011;39181;53.440;5.644;2022-10-22T05:13:52;13.85;;;5.35;;
53293;SDS011;39181;53.440;5.644;2022-10-22T05:16:19;14.75;;;6.03;;
53293;SDS011;39181;53.440;5.644;2022-10-22T05:18:44;11.38;;;6.40;;
53293;SDS011;39181;53.440;5.644;2022-10-22T05:21:11;9.52;;;6.13;;
53293;SDS011;39181;53.440;5.644;2022-10-22T05:23:39;13.77;;;6.07;;
53293;SDS011;39181;53.440;5.644;2022-10-22T05:26:05;14.90;;;5.68;;
53293;SDS011;39181;53.440;5.644;2022-10-22T05:28:32;13.65;;;5.10;;
53293;SDS011;39181;53.440;5.644;2022-10-22T05:30:59;10.65;;;5.13;;
53293;SDS011;39181;53.440;5.644;2022-10-22T05:33:25;13.55;;;5.45;;
53293;SDS011;39181;53.440;5.644;2022-10-22T05:35:52;9.80;;;5.43;;
53293;SDS011;39181;53.440;5.644;2022-10-22T05:38:17;11.10;;;5.25;;
53293;SDS011;39181;53.440;5.644;2022-10-22T05:40:43;11.93;;;4.93;;
53293;SDS011;39181;53.440;5.644;2022-10-22T05:43:10;12.40;;;4.82;;
53293;SDS011;39181;53.440;5.644;2022-10-22T05:45:36;11.13;;;4.93;;
53293;SDS011;39181;53.440;5.644;2022-10-22T05:48:05;14.80;;;5.88;;
53293;SDS011;39181;53.440;5.644;2022-10-22T05:50:36;13.13;;;4.90;;
53293;SDS011;39181;53.440;5.644;2022-10-22T05:53:02;14.70;;;4.60;;
53293;SDS011;39181;53.440;5.644;2022-10-22T05:55:34;12.30;;;4.85;;
53293;SDS011;39181;53.440;5.644;2022-10-22T05:58:03;15.15;;;5.47;;
53293;SDS011;39181;53.440;5.644;2022-10-22T06:00:28;18.23;;;4.88;;
53293;SDS011;39181;53.440;5.644;2022-10-22T06:02:54;10.98;;;4.95;;
53293;SDS011;39181;53.440;5.644;2022-10-22T06:05:20;11.82;;;5.43;;
53293;SDS011;39181;53.440;5.644;2022-10-22T06:07:45;15.88;;;5.05;;
53293;SDS011;39181;53.440;5.644;2022-10-22T06:10:14;15.88;;;5.10;;
53293;SDS011;39181;53.440;5.644;2022-10-22T06:12:42;11.77;;;5.05;;
53293;SDS011;39181;53.440;5.644;2022-10-22T06:15:11;14.10;;;4.97;;
53293;SDS011;39181;53.440;5.644;2022-10-22T06:17:38;15.85;;;4.90;;
53293;SDS011;39181;53.440;5.644;2022-10-22T06:20:03;18.52;;;5.40;;
53293;SDS011;39181;53.440;5.644;2022-10-22T06:22:29;15.85;;;4.70;;
53293;SDS011;39181;53.440;5.644;2022-10-22T06:24:55;16.75;;;5.15;;
53293;SDS011;39181;53.440;5.644;2022-10-22T06:27:20;15.95;;;4.85;;
53293;SDS011;39181;53.440;5.644;2022-10-22T06:29:46;12.38;;;4.45;;
53293;SDS011;39181;53.440;5.644;2022-10-22T06:32:12;11.18;;;4.30;;
53293;SDS011;39181;53.440;5.644;2022-10-22T06:34:38;9.27;;;3.80;;
53293;SDS011;39181;53.440;5.644;2022-10-22T06:37:03;14.82;;;4.45;;
53293;SDS011;39181;53.440;5.644;2022-10-22T06:39:29;14.98;;;4.55;;
53293;SDS011;39181;53.440;5.644;2022-10-22T06:41:54;13.40;;;4.15;;
53293;SDS011;39181;53.440;5.644;2022-10-22T06:44:20;11.10;;;4.20;;
53293;SDS011;39181;53.440;5.644;2022-10-22T06:46:48;13.27;;;4.50;;
53293;SDS011;39181;53.440;5.644;2022-10-22T06:49:16;13.30;;;4.28;;
53293;SDS011;39181;53.440;5.644;2022-10-22T06:51:41;15.27;;;5.22;;
53293;SDS011;39181;53.440;5.644;2022-10-22T06:54:07;12.18;;;3.70;;
53293;SDS011;39181;53.440;5.644;2022-10-22T06:56:33;9.73;;;3.83;;
53293;SDS011;39181;53.440;5.644;2022-10-22T06:58:58;10.48;;;4.00;;
53293;SDS011;39181;53.440;5.644;2022-10-22T07:01:28;10.05;;;3.97;;
53293;SDS011;39181;53.440;5.644;2022-10-22T07:03:55;14.00;;;4.22;;
53293;SDS011;39181;53.440;5.644;2022-10-22T07:06:22;11.75;;;4.18;;
53293;SDS011;39181;53.440;5.644;2022-10-22T07:08:49;15.27;;;4.40;;
53293;SDS011;39181;53.440;5.644;2022-10-22T07:11:16;12.52;;;4.13;;
53293;SDS011;39181;53.440;5.644;2022-10-22T07:13:49;12.10;;;4.30;;
53293;SDS011;39181;53.440;5.644;2022-10-22T07:16:15;12.90;;;3.90;;
53293;SDS011;39181;53.440;5.644;2022-10-22T07:18:42;11.55;;;4.25;;
53293;SDS011;39181;53.440;5.644;2022-10-22T07:21:09;9.95;;;3.15;;
53293;SDS011;39181;53.440;5.644;2022-10-22T07:23:36;11.10;;;4.45;;
53293;SDS011;39181;53.440;5.644;2022-10-22T07:26:02;12.27;;;3.55;;
53293;SDS011;39181;53.440;5.644;2022-10-22T07:28:31;15.27;;;3.72;;
53293;SDS011;39181;53.440;5.644;2022-10-22T07:30:58;14.25;;;4.25;;
53293;SDS011;39181;53.440;5.644;2022-10-22T07:33:24;15.23;;;3.60;;
53293;SDS011;39181;53.440;5.644;2022-10-22T07:35:50;8.48;;;3.45;;
53293;SDS011;39181;53.440;5.644;2022-10-22T07:38:21;13.50;;;3.88;;
53293;SDS011;39181;53.440;5.644;2022-10-22T07:40:46;9.48;;;3.47;;
53293;SDS011;39181;53.440;5.644;2022-10-22T07:43:12;14.40;;;4.03;;
53293;SDS011;39181;53.440;5.644;2022-10-22T07:45:37;10.13;;;3.22;;
53293;SDS011;39181;53.440;5.644;2022-10-22T07:48:05;11.77;;;3.65;;
53293;SDS011;39181;53.440;5.644;2022-10-22T07:50:30;11.05;;;3.50;;
53293;SDS011;39181;53.440;5.644;2022-10-22T07:52:56;10.73;;;3.55;;
53293;SDS011;39181;53.440;5.644;2022-10-22T07:55:21;9.38;;;3.30;;
53293;SDS011;39181;53.440;5.644;2022-10-22T07:57:47;11.93;;;3.42;;
53293;SDS011;39181;53.440;5.644;2022-10-22T08:00:13;13.65;;;3.35;;
53293;SDS011;39181;53.440;5.644;2022-10-22T08:02:38;15.57;;;4.22;;
53293;SDS011;39181;53.440;5.644;2022-10-22T08:05:04;13.95;;;4.25;;
53293;SDS011;39181;53.440;5.644;2022-10-22T08:07:30;12.05;;;3.30;;
53293;SDS011;39181;53.440;5.644;2022-10-22T08:09:55;13.40;;;3.80;;
53293;SDS011;39181;53.440;5.644;2022-10-22T08:12:21;10.18;;;2.97;;
53293;SDS011;39181;53.440;5.644;2022-10-22T08:14:47;19.02;;;3.50;;
53293;SDS011;39181;53.440;5.644;2022-10-22T08:17:12;15.60;;;3.42;;
53293;SDS011;39181;53.440;5.644;2022-10-22T08:19:38;16.00;;;3.75;;
53293;SDS011;39181;53.440;5.644;2022-10-22T08:22:03;13.48;;;3.22;;
53293;SDS011;39181;53.440;5.644;2022-10-22T08:24:29;9.38;;;3.65;;
53293;SDS011;39181;53.440;5.644;2022-10-22T08:26:54;12.48;;;3.55;;
53293;SDS011;39181;53.440;5.644;2022-10-22T08:29:23;12.57;;;3.40;;
53293;SDS011;39181;53.440;5.644;2022-10-22T08:31:50;11.63;;;3.40;;
53293;SDS011;39181;53.440;5.644;2022-10-22T08:34:16;13.13;;;3.40;;
53293;SDS011;39181;53.440;5.644;2022-10-22T08:36:42;13.32;;;4.18;;
53293;SDS011;39181;53.440;5.644;2022-10-22T08:39:08;10.98;;;3.97;;
53293;SDS011;39181;53.440;5.644;2022-10-22T08:41:35;14.38;;;3.42;;
53293;SDS011;39181;53.440;5.644;2022-10-22T08:47:26;11.85;;;3.08;;
53293;SDS011;39181;53.440;5.644;2022-10-22T08:50:18;11.52;;;3.08;;
53293;SDS011;39181;53.440;5.644;2022-10-22T08:52:50;12.25;;;2.60;;
53293;SDS011;39181;53.440;5.644;2022-10-22T08:58:07;13.70;;;2.97;;
53293;SDS011;39181;53.440;5.644;2022-10-22T09:00:57;8.57;;;3.50;;
53293;SDS011;39181;53.440;5.644;2022-10-22T09:03:42;9.38;;;3.10;;
53293;SDS011;39181;53.440;5.644;2022-10-22T09:06:14;11.38;;;3.25;;
53293;SDS011;39181;53.440;5.644;2022-10-22T09:13:48;16.08;;;2.92;;
53293;SDS011;39181;53.440;5.644;2022-10-22T09:16:25;9.85;;;2.97;;
53293;SDS011;39181;53.440;5.644;2022-10-22T09:22:00;8.32;;;2.50;;
53293;SDS011;39181;53.440;5.644;2022-10-22T09:24:45;14.48;;;2.67;;
53293;SDS011;39181;53.440;5.644;2022-10-22T09:27:14;15.10;;;2.65;;
53293;SDS011;39181;53.440;5.644;2022-10-22T09:29:46;13.80;;;3.20;;
53293;SDS011;39181;53.440;5.644;2022-10-22T09:32:12;18.73;;;4.07;;
53293;SDS011;39181;53.440;5.644;2022-10-22T09:34:39;16.10;;;3.17;;
53293;SDS011;39181;53.440;5.644;2022-10-22T09:37:06;9.05;;;2.92;;
53293;SDS011;39181;53.440;5.644;2022-10-22T09:39:34;17.77;;;3.30;;
53293;SDS011;39181;53.440;5.644;2022-10-22T09:42:01;16.73;;;3.60;;
53293;SDS011;39181;53.440;5.644;2022-10-22T09:44:26;14.25;;;3.40;;
53293;SDS011;39181;53.440;5.644;2022-10-22T09:46:52;15.45;;;3.20;;
53293;SDS011;39181;53.440;5.644;2022-10-22T09:49:18;13.90;;;3.20;;
53293;SDS011;39181;53.440;5.644;2022-10-22T09:51:48;11.27;;;3.03;;
53293;SDS011;39181;53.440;5.644;2022-10-22T09:54:26;19.65;;;3.97;;
53293;SDS011;39181;53.440;5.644;2022-10-22T09:57:04;22.08;;;4.32;;
53293;SDS011;39181;53.440;5.644;2022-10-22T09:59:38;10.90;;;3.13;;
53293;SDS011;39181;53.440;5.644;2022-10-22T10:02:10;16.67;;;3.75;;
53293;SDS011;39181;53.440;5.644;2022-10-22T10:04:41;13.15;;;3.53;;
53293;SDS011;39181;53.440;5.644;2022-10-22T10:07:18;16.92;;;3.80;;
53293;SDS011;39181;53.440;5.644;2022-10-22T10:09:46;12.40;;;3.00;;
53293;SDS011;39181;53.440;5.644;2022-10-22T10:15:06;13.48;;;3.90;;
53293;SDS011;39181;53.440;5.644;2022-10-22T10:18:14;13.68;;;3.38;;
53293;SDS011;39181;53.440;5.644;2022-10-22T10:20:58;15.93;;;3.40;;
53293;SDS011;39181;53.440;5.644;2022-10-22T10:26:54;11.55;;;3.25;;
53293;SDS011;39181;53.440;5.644;2022-10-22T10:29:30;19.77;;;4.57;;
53293;SDS011;39181;53.440;5.644;2022-10-22T10:32:18;16.10;;;3.58;;
53293;SDS011;39181;53.440;5.644;2022-10-22T10:35:14;15.27;;;3.78;;
53293;SDS011;39181;53.440;5.644;2022-10-22T10:40:54;12.95;;;3.75;;
53293;SDS011;39181;53.440;5.644;2022-10-22T10:46:10;14.90;;;4.10;;
53293;SDS011;39181;53.440;5.644;2022-10-22T10:48:59;13.07;;;3.20;;
53293;SDS011;39181;53.440;5.644;2022-10-22T10:51:34;19.50;;;4.75;;
53293;SDS011;39181;53.440;5.644;2022-10-22T11:07:51;20.05;;;3.63;;
53293;SDS011;39181;53.440;5.644;2022-10-22T11:11:04;19.48;;;2.75;;
53293;SDS011;39181;53.440;5.644;2022-10-22T11:13:51;9.63;;;2.70;;
53293;SDS011;39181;53.440;5.644;2022-10-22T11:22:04;10.07;;;2.50;;
53293;SDS011;39181;53.440;5.644;2022-10-22T11:24:40;12.55;;;2.30;;
53293;SDS011;39181;53.440;5.644;2022-10-22T11:27:27;13.63;;;2.67;;
53293;SDS011;39181;53.440;5.644;2022-10-22T11:30:02;15.32;;;2.38;;
53293;SDS011;39181;53.440;5.644;2022-10-22T11:32:32;11.80;;;2.25;;
53293;SDS011;39181;53.440;5.644;2022-10-22T11:35:00;11.10;;;2.50;;
53293;SDS011;39181;53.440;5.644;2022-10-22T11:37:30;13.48;;;2.92;;
53293;SDS011;39181;53.440;5.644;2022-10-22T11:40:02;9.15;;;2.40;;
53293;SDS011;39181;53.440;5.644;2022-10-22T11:42:38;9.68;;;2.70;;
53293;SDS011;39181;53.440;5.644;2022-10-22T11:55:45;12.27;;;1.77;;
53293;SDS011;39181;53.440;5.644;2022-10-22T12:03:43;9.23;;;1.50;;
53293;SDS011;39181;53.440;5.644;2022-10-22T12:06:24;12.88;;;2.65;;
53293;SDS011;39181;53.440;5.644;2022-10-22T12:08:54;10.27;;;1.42;;
53293;SDS011;39181;53.440;5.644;2022-10-22T12:11:26;8.40;;;1.40;;
53293;SDS011;39181;53.440;5.644;2022-10-22T12:14:13;9.68;;;1.60;;
53293;SDS011;39181;53.440;5.644;2022-10-22T12:24:42;8.77;;;1.60;;
53293;SDS011;39181;53.440;5.644;2022-10-22T12:29:53;10.63;;;1.55;;
53293;SDS011;39181;53.440;5.644;2022-10-22T12:32:21;14.68;;;2.47;;
53293;SDS011;39181;53.440;5.644;2022-10-22T12:34:47;15.18;;;1.85;;
53293;SDS011;39181;53.440;5.644;2022-10-22T12:37:15;11.93;;;2.17;;
53293;SDS011;39181;53.440;5.644;2022-10-22T12:39:41;12.95;;;2.05;;
53293;SDS011;39181;53.440;5.644;2022-10-22T12:42:12;18.90;;;1.80;;
53293;SDS011;39181;53.440;5.644;2022-10-22T12:44:40;12.63;;;1.83;;
53293;SDS011;39181;53.440;5.644;2022-10-22T12:47:10;19.60;;;2.08;;
53293;SDS011;39181;53.440;5.644;2022-10-22T12:52:10;10.77;;;1.90;;
53293;SDS011;39181;53.440;5.644;2022-10-22T12:54:40;13.90;;;2.17;;
53293;SDS011;39181;53.440;5.644;2022-10-22T12:57:08;16.25;;;2.40;;
53293;SDS011;39181;53.440;5.644;2022-10-22T12:59:37;16.15;;;2.60;;
53293;SDS011;39181;53.440;5.644;2022-10-22T13:02:26;13.35;;;2.28;;
53293;SDS011;39181;53.440;5.644;2022-10-22T13:07:41;15.48;;;2.33;;
53293;SDS011;39181;53.440;5.644;2022-10-22T13:10:48;19.35;;;1.83;;
53293;SDS011;39181;53.440;5.644;2022-10-22T13:16:18;16.17;;;1.98;;
53293;SDS011;39181;53.440;5.644;2022-10-22T13:18:49;10.13;;;1.88;;
53293;SDS011;39181;53.440;5.644;2022-10-22T13:21:22;18.70;;;1.73;;
53293;SDS011;39181;53.440;5.644;2022-10-22T13:23:59;10.65;;;1.83;;
53293;SDS011;39181;53.440;5.644;2022-10-22T13:26:30;11.55;;;2.08;;
53293;SDS011;39181;53.440;5.644;2022-10-22T13:28:58;13.65;;;2.15;;
53293;SDS011;39181;53.440;5.644;2022-10-22T13:31:26;13.70;;;1.35;;
53293;SDS011;39181;53.440;5.644;2022-10-22T13:34:02;12.95;;;1.55;;
53293;SDS011;39181;53.440;5.644;2022-10-22T13:36:30;11.68;;;1.60;;
53293;SDS011;39181;53.440;5.644;2022-10-22T13:38:56;13.95;;;2.65;;
53293;SDS011;39181;53.440;5.644;2022-10-22T13:41:23;16.02;;;2.17;;
53293;SDS011;39181;53.440;5.644;2022-10-22T13:43:51;14.85;;;1.95;;
53293;SDS011;39181;53.440;5.644;2022-10-22T13:46:18;15.10;;;2.10;;
53293;SDS011;39181;53.440;5.644;2022-10-22T13:48:44;12.35;;;1.75;;
53293;SDS011;39181;53.440;5.644;2022-10-22T13:51:12;10.02;;;2.10;;
53293;SDS011;39181;53.440;5.644;2022-10-22T13:53:40;10.18;;;1.77;;
53293;SDS011;39181;53.440;5.644;2022-10-22T13:56:10;14.63;;;2.38;;
53293;SDS011;39181;53.440;5.644;2022-10-22T13:58:41;6.93;;;1.25;;
53293;SDS011;39181;53.440;5.644;2022-10-22T14:01:16;9.93;;;1.40;;
53293;SDS011;39181;53.440;5.644;2022-10-22T14:03:42;8.75;;;1.58;;
53293;SDS011;39181;53.440;5.644;2022-10-22T14:06:12;11.68;;;1.95;;
53293;SDS011;39181;53.440;5.644;2022-10-22T14:08:41;13.38;;;2.17;;
53293;SDS011;39181;53.440;5.644;2022-10-22T14:11:09;12.27;;;1.63;;
53293;SDS011;39181;53.440;5.644;2022-10-22T14:13:35;12.10;;;2.10;;
53293;SDS011;39181;53.440;5.644;2022-10-22T14:16:01;17.17;;;1.92;;
53293;SDS011;39181;53.440;5.644;2022-10-22T14:18:30;9.82;;;1.00;;
53293;SDS011;39181;53.440;5.644;2022-10-22T14:20:58;7.50;;;1.05;;
53293;SDS011;39181;53.440;5.644;2022-10-22T14:23:26;9.98;;;1.38;;
53293;SDS011;39181;53.440;5.644;2022-10-22T14:25:54;9.60;;;1.10;;
53293;SDS011;39181;53.440;5.644;2022-10-22T14:28:20;12.13;;;1.50;;
53293;SDS011;39181;53.440;5.644;2022-10-22T14:30:45;8.77;;;1.20;;
53293;SDS011;39181;53.440;5.644;2022-10-22T14:33:16;10.20;;;1.10;;
53293;SDS011;39181;53.440;5.644;2022-10-22T14:35:44;10.50;;;1.50;;
53293;SDS011;39181;53.440;5.644;2022-10-22T14:38:12;12.30;;;1.63;;
53293;SDS011;39181;53.440;5.644;2022-10-22T14:40:38;14.43;;;1.75;;
53293;SDS011;39181;53.440;5.644;2022-10-22T14:43:06;15.05;;;1.90;;
53293;SDS011;39181;53.440;5.644;2022-10-22T14:45:34;15.80;;;2.20;;
53293;SDS011;39181;53.440;5.644;2022-10-22T14:47:59;13.50;;;2.28;;
53293;SDS011;39181;53.440;5.644;2022-10-22T14:50:26;12.35;;;1.85;;
53293;SDS011;39181;53.440;5.644;2022-10-22T14:52:51;20.30;;;2.75;;
53293;SDS011;39181;53.440;5.644;2022-10-22T14:55:17;23.50;;;3.03;;
53293;SDS011;39181;53.440;5.644;2022-10-22T14:57:43;14.05;;;1.95;;
53293;SDS011;39181;53.440;5.644;2022-10-22T15:00:13;17.98;;;2.05;;
53293;SDS011;39181;53.440;5.644;2022-10-22T15:02:40;20.17;;;2.65;;
53293;SDS011;39181;53.440;5.644;2022-10-22T15:05:06;15.38;;;2.30;;
53293;SDS011;39181;53.440;5.644;2022-10-22T15:07:32;14.35;;;2.35;;
53293;SDS011;39181;53.440;5.644;2022-10-22T15:09:58;13.20;;;2.00;;
53293;SDS011;39181;53.440;5.644;2022-10-22T15:12:23;17.77;;;3.63;;
53293;SDS011;39181;53.440;5.644;2022-10-22T15:14:49;18.30;;;2.25;;
53293;SDS011;39181;53.440;5.644;2022-10-22T15:17:15;17.38;;;2.58;;
53293;SDS011;39181;53.440;5.644;2022-10-22T15:19:41;13.98;;;2.05;;
53293;SDS011;39181;53.440;5.644;2022-10-22T15:22:08;16.85;;;2.17;;
53293;SDS011;39181;53.440;5.644;2022-10-22T15:24:36;15.40;;;2.10;;
53293;SDS011;39181;53.440;5.644;2022-10-22T15:27:02;15.77;;;2.88;;
53293;SDS011;39181;53.440;5.644;2022-10-22T15:29:28;15.07;;;2.58;;
53293;SDS011;39181;53.440;5.644;2022-10-22T15:31:55;15.63;;;1.92;;
53293;SDS011;39181;53.440;5.644;2022-10-22T15:34:42;12.93;;;2.00;;
53293;SDS011;39181;53.440;5.644;2022-10-22T15:37:09;13.63;;;2.45;;
53293;SDS011;39181;53.440;5.644;2022-10-22T15:39:39;15.85;;;2.90;;
53293;SDS011;39181;53.440;5.644;2022-10-22T15:42:06;19.90;;;2.25;;
53293;SDS011;39181;53.440;5.644;2022-10-22T15:44:32;19.60;;;2.45;;
53293;SDS011;39181;53.440;5.644;2022-10-22T15:46:58;18.40;;;2.38;;
53293;SDS011;39181;53.440;5.644;2022-10-22T15:49:25;21.38;;;2.78;;
53293;SDS011;39181;53.440;5.644;2022-10-22T15:51:51;17.15;;;1.85;;
53293;SDS011;39181;53.440;5.644;2022-10-22T15:54:18;15.73;;;3.17;;
53293;SDS011;39181;53.440;5.644;2022-10-22T15:56:48;17.95;;;2.67;;
53293;SDS011;39181;53.440;5.644;2022-10-22T15:59:14;21.23;;;2.63;;
53293;SDS011;39181;53.440;5.644;2022-10-22T16:01:41;12.77;;;2.42;;
53293;SDS011;39181;53.440;5.644;2022-10-22T16:04:07;20.00;;;2.78;;
53293;SDS011;39181;53.440;5.644;2022-10-22T16:06:37;23.52;;;2.60;;
53293;SDS011;39181;53.440;5.644;2022-10-22T16:09:06;20.67;;;2.17;;
53293;SDS011;39181;53.440;5.644;2022-10-22T16:11:33;21.60;;;2.05;;
53293;SDS011;39181;53.440;5.644;2022-10-22T16:13:59;19.23;;;2.28;;
53293;SDS011;39181;53.440;5.644;2022-10-22T16:16:27;18.38;;;2.33;;
53293;SDS011;39181;53.440;5.644;2022-10-22T16:18:54;12.27;;;2.22;;
53293;SDS011;39181;53.440;5.644;2022-10-22T16:21:20;21.77;;;2.35;;
53293;SDS011;39181;53.440;5.644;2022-10-22T16:23:47;14.40;;;2.28;;
53293;SDS011;39181;53.440;5.644;2022-10-22T16:26:13;17.48;;;2.47;;
53293;SDS011;39181;53.440;5.644;2022-10-22T16:28:40;18.80;;;2.53;;